ADDS METAR Data INFO
IDs: Format: Raw Decoded Include TAF

Data at: 0847 UTC 27 Jun 2017

KDWH 270753Z 00000KT 10SM CLR 23/22 A3000 RMK AO2 SLP157 T02330222
KDWH 270653Z 14003KT 10SM CLR 24/22 A3002 RMK AO2 SLP162 T02390217
KDWH 270553Z 16003KT 10SM CLR 24/22 A3002 RMK AO2 SLP164 60005 T02440222 10294 20244 403280228 50004
KDWH 270513Z 00000KT 10SM FEW014 SCT023 25/24 A3003 RMK AO2 T02500239
KDWH 270453Z 30003KT 10SM BKN015 BKN028 25/24 A3003 RMK AO2 SLP165 T02500239
KDWH 270416Z 00000KT 10SM SCT019 BKN026 BKN037 25/24 A3003 RMK AO2 T02500239
KDWH 270404Z 04003KT 10SM SCT019 SCT024 25/24 A3003 RMK AO2 T02500239
KDWH 270353Z 00000KT 9SM SCT020 BKN024 BKN033 25/24 A3003 RMK AO2 SLP166 T02500239
KDWH 270322Z 00000KT 10SM BKN022 25/24 A3002 RMK AO2 T02500239
KDWH 270253Z 00000KT 9SM CLR 24/24 A3001 RMK AO2 SLP161 60005 T02440239 51003
KDWH 270153Z 23005KT 10SM FEW024 SCT075 BKN110 24/23 A3001 RMK AO2 RAE47 SLP159 P0005 T02440233
KDWH 270053Z 25006KT 10SM -RA BKN033 BKN055 OVC070 26/23 A3001 RMK AO2 LTG DSNT SE AND S RAB24 SLP159 P0000 T02560233
KDWH 270039Z 25006KT 10SM -RA SCT030 OVC036 26/23 A3001 RMK AO2 LTG DSNT SE AND S AND NW RAB24 P0000 T02610233
KDWH 270013Z 12008KT 100V160 10SM BKN029 BKN095 29/23 A3000 RMK AO2 LTG DSNT SE AND S T02890228
KDWH 262353Z 12005KT 10SM FEW033 FEW065 SCT095 29/22 A3000 RMK AO2 LTG DSNT N SLP157 T02940222 10328 20294 53000
KDWH 262253Z 11007KT 10SM CLR 30/22 A2999 RMK AO2 LTG DSNT S AND SW SLP152 T03000217
KDWH 262153Z 11012G16KT 10SM FEW047 31/22 A2999 RMK AO2 SLP154 T03060222
KDWH 262053Z VRB06KT 10SM FEW041 FEW110 33/22 A3000 RMK AO2 SLP157 T03280217 56025
KDWH 261953Z 10006KT 10SM SCT039 32/22 A3002 RMK AO2 SLP162 T03170217
KDWH 261853Z COR 08007KT 10SM BKN039 BKN100 32/22 A3005 RMK AO2 SLP173 T03170222
KDWH 261753Z 04004KT 10SM BKN036 BKN070 30/22 A3008 RMK AO2 SLP182 T03000217 10311 20233 57007
KDWH 261653Z VRB04KT 10SM BKN028 30/22 A3010 RMK AO2 SLP189 T03000222
KDWH 261553Z 11004KT 10SM CLR 29/22 A3010 RMK AO2 SLP190 T02890222
KDWH 261453Z 09006KT 10SM CLR 27/22 A3012 RMK AO2 SLP198 T02720222 50007
KDWH 261353Z 08008KT 9SM CLR 25/22 A3013 RMK AO2 SLP199 T02500217
KDWH 261253Z 05004KT 10SM CLR 24/22 A3010 RMK AO2 SLP192 T02440217
KDWH 261215Z 07007KT 10SM FEW013 23/21 A3010 RMK AO2 T02330211
KDWH 261153Z 06006KT 10SM BKN014 23/22 A3010 RMK AO2 SLP190 T02330217 10250 20228 55000
KDWH 261123Z VRB03KT 10SM BKN013 23/22 A3010 RMK AO2 T02330217
KDWH 261053Z 03003KT 10SM CLR 23/22 A3010 RMK AO2 SLP189 T02330217
KDWH 261016Z VRB03KT 10SM FEW028 23/21 A3009 RMK AO2 T02330211
KDWH 260953Z 06004KT 10SM BKN026 23/22 A3010 RMK AO2 SLP190 T02330217
KDWH 260853Z 07004KT 10SM CLR 24/22 A3010 RMK AO2 SLP190 T02390217 55005
KDWH 260753Z 07003KT 10SM CLR 24/22 A3010 RMK AO2 SLP189 T02440217
KDWH 260653Z 07004KT 10SM CLR 24/21 A3010 RMK AO2 SLP191 T02440211
KDWH 260553Z 11004KT 10SM CLR 25/22 A3012 RMK AO2 SLP196 T02500217 10289 20250 403170228 51002
KDWH 260453Z 09004KT 10SM FEW085 26/22 A3012 RMK AO2 SLP196 T02560222
KDWH 260353Z 07003KT 10SM FEW034 25/21 A3012 RMK AO2 SLP197 T02500211
KDWH 260253Z 06004KT 10SM CLR 26/22 A3011 RMK AO2 SLP194 T02560217 53011
KDWH 260153Z 09005KT 10SM CLR 27/22 A3009 RMK AO2 SLP187 T02670222
KDWH 260053Z 08005KT 10SM CLR 27/22 A3009 RMK AO2 SLP185 T02720217
KDWH 252353Z 11007G16KT 10SM SCT033 SCT043 29/23 A3008 RMK AO2 LTG DSNT NW SLP183 T02890228 10317 20289 55001
KDWH 252253Z 11008KT 10SM FEW034 SCT070 30/23 A3007 RMK AO2 LTG DSNT NW SLP180 T03000228
KDWH 252153Z 11009KT 070V140 10SM FEW030 31/22 A3008 RMK AO2 SLP185 T03060222
KDWH 252053Z 09007KT 10SM CLR 31/21 A3008 RMK AO2 SLP184 T03110206 58021


Page loaded:  08:47 UTC  |   01:47 AM Pacific  |   02:47 AM Mountain  |   03:47 AM Central  |   04:47 AM Eastern

 

ADVISORIES

FORECASTS

FORECASTS

OBSERVATIONS

USER TOOLS

ABOUT US